Time;durP1;ratioP1;P1;durP2;ratioP2;P2;SDS_P1;SDS_P2;PMS_P1;PMS_P2;Temp;Humidity;BMP_temperature;BMP_pressure;BME280_temperature;BME280_humidity;BME280_pressure;Samples;Min_cycle;Max_cycle;Signal;HPM_P1;HPM_P2
2022/09/30 00:01:03;;;;;;;8.10;5.38;;;;;;;;;;5091437;28;20075;-74
2022/09/30 00:03:28;;;;;;;9.98;5.68;;;;;;;;;;5091178;28;20100;-74
2022/09/30 00:05:57;;;;;;;11.10;5.72;;;;;;;;;;5091605;28;20020;-75
2022/09/30 00:08:23;;;;;;;10.35;5.45;;;;;;;;;;5091208;28;20038;-75
2022/09/30 00:10:58;;;;;;;9.45;5.55;;;;;;;;;;5091265;28;20470;-75
2022/09/30 00:13:23;;;;;;;10.30;5.82;;;;;;;;;;5091176;28;20121;-74
2022/09/30 00:15:48;;;;;;;8.23;5.60;;;;;;;;;;5090670;28;20499;-78
2022/09/30 00:18:13;;;;;;;6.93;5.32;;;;;;;;;;5091125;28;20024;-76
2022/09/30 00:20:39;;;;;;;11.73;5.95;;;;;;;;;;5089620;28;20019;-76
2022/09/30 00:23:04;;;;;;;8.35;5.75;;;;;;;;;;5090968;28;20491;-76
2022/09/30 00:25:29;;;;;;;8.73;5.30;;;;;;;;;;5091134;28;20020;-76
2022/09/30 00:27:54;;;;;;;10.32;5.70;;;;;;;;;;5090556;28;20028;-76
2022/09/30 00:30:20;;;;;;;8.27;5.22;;;;;;;;;;5090994;28;20111;-76
2022/09/30 00:32:45;;;;;;;9.93;5.80;;;;;;;;;;5090819;28;20036;-76
2022/09/30 00:35:10;;;;;;;9.82;5.82;;;;;;;;;;5090764;28;20504;-75
2022/09/30 00:37:35;;;;;;;9.18;5.80;;;;;;;;;;5089615;28;20115;-75
2022/09/30 00:40:01;;;;;;;10.35;5.88;;;;;;;;;;5090077;28;20039;-76
2022/09/30 00:42:29;;;;;;;14.38;6.20;;;;;;;;;;5090722;28;20027;-76
2022/09/30 00:45:01;;;;;;;6.97;4.97;;;;;;;;;;5090772;28;20035;-76
2022/09/30 00:47:44;;;;;;;12.32;5.68;;;;;;;;;;5090679;28;20031;-76
2022/09/30 00:50:32;;;;;;;8.18;5.53;;;;;;;;;;5090341;28;20039;-76
2022/09/30 00:53:03;;;;;;;8.85;5.75;;;;;;;;;;5090631;28;20028;-75
2022/09/30 00:55:39;;;;;;;9.98;5.75;;;;;;;;;;5090261;28;20473;-76
2022/09/30 00:58:08;;;;;;;10.32;5.57;;;;;;;;;;5090385;28;20500;-76
2022/09/30 01:00:34;;;;;;;9.35;5.68;;;;;;;;;;5089106;28;20028;-76
2022/09/30 01:03:00;;;;;;;12.65;6.45;;;;;;;;;;5089958;28;20028;-76
2022/09/30 01:05:26;;;;;;;8.65;5.57;;;;;;;;;;5090126;28;20032;-75
2022/09/30 01:07:55;;;;;;;9.57;5.90;;;;;;;;;;5090167;28;20036;-76
2022/09/30 01:10:20;;;;;;;8.63;5.82;;;;;;;;;;5090022;28;20032;-76
2022/09/30 01:12:45;;;;;;;11.75;6.20;;;;;;;;;;5090089;28;20031;-74
2022/09/30 01:15:11;;;;;;;19.17;6.80;;;;;;;;;;5088334;28;20024;-76
2022/09/30 01:17:48;;;;;;;9.23;6.13;;;;;;;;;;5089891;28;20027;-75
2022/09/30 01:20:32;;;;;;;11.07;6.35;;;;;;;;;;5089770;28;20024;-75
2022/09/30 01:23:34;;;;;;;8.80;5.97;;;;;;;;;;5089980;28;20056;-75
2022/09/30 01:26:33;;;;;;;10.70;5.35;;;;;;;;;;5089390;28;20427;-76
2022/09/30 01:29:04;;;;;;;9.55;6.28;;;;;;;;;;5089994;28;20107;-76
2022/09/30 01:31:56;;;;;;;9.73;6.25;;;;;;;;;;5088499;28;20461;-76
2022/09/30 01:34:46;;;;;;;12.63;6.00;;;;;;;;;;5089639;28;20040;-76
2022/09/30 01:37:28;;;;;;;10.07;6.13;;;;;;;;;;5089546;28;20182;-75
2022/09/30 01:40:21;;;;;;;8.45;6.05;;;;;;;;;;5089064;28;20051;-76
2022/09/30 01:43:04;;;;;;;8.13;5.70;;;;;;;;;;5089582;28;20058;-75
2022/09/30 01:45:41;;;;;;;10.25;5.80;;;;;;;;;;5089848;28;20058;-76
2022/09/30 01:48:24;;;;;;;12.05;6.38;;;;;;;;;;5089439;28;20107;-76
2022/09/30 01:51:05;;;;;;;12.68;6.40;;;;;;;;;;5088677;28;20032;-76
2022/09/30 01:53:46;;;;;;;9.38;6.40;;;;;;;;;;5089458;28;20028;-75
2022/09/30 01:56:31;;;;;;;11.30;6.43;;;;;;;;;;5089178;28;20572;-76
2022/09/30 01:59:05;;;;;;;10.30;7.00;;;;;;;;;;5089163;28;20550;-74
2022/09/30 02:01:38;;;;;;;8.48;6.10;;;;;;;;;;5089365;28;20495;-75
2022/09/30 02:04:15;;;;;;;11.35;6.75;;;;;;;;;;5087498;28;20047;-76
2022/09/30 02:06:46;;;;;;;11.68;6.63;;;;;;;;;;5089367;28;20405;-75
2022/09/30 02:09:15;;;;;;;12.13;7.10;;;;;;;;;;5089643;28;20028;-75
2022/09/30 02:11:41;;;;;;;12.98;7.35;;;;;;;;;;5089191;28;20420;-76
2022/09/30 02:14:16;;;;;;;13.13;6.55;;;;;;;;;;5087357;28;20028;-76
2022/09/30 02:16:50;;;;;;;13.73;6.72;;;;;;;;;;5089170;28;20030;-76
2022/09/30 02:19:40;;;;;;;10.97;6.67;;;;;;;;;;5088943;28;20032;-76
2022/09/30 02:22:12;;;;;;;10.93;6.60;;;;;;;;;;5089045;28;20252;-76
2022/09/30 02:24:38;;;;;;;10.48;6.80;;;;;;;;;;5087821;28;20067;-76
2022/09/30 02:27:28;;;;;;;9.90;6.70;;;;;;;;;;5088634;28;20020;-76
2022/09/30 02:29:58;;;;;;;14.93;6.85;;;;;;;;;;5089020;28;20024;-75
2022/09/30 02:32:31;;;;;;;10.43;6.43;;;;;;;;;;5089063;28;20107;-75
2022/09/30 02:35:04;;;;;;;9.90;6.95;;;;;;;;;;5087567;28;20508;-75
2022/09/30 02:37:35;;;;;;;11.32;7.07;;;;;;;;;;5088894;28;20426;-74
2022/09/30 02:40:12;;;;;;;13.02;6.95;;;;;;;;;;5088484;28;20157;-75
2022/09/30 02:42:39;;;;;;;9.80;6.28;;;;;;;;;;5091702;28;20396;-75
2022/09/30 02:45:09;;;;;;;10.82;6.88;;;;;;;;;;5089455;28;20343;-75
2022/09/30 02:48:10;;;;;;;10.40;6.70;;;;;;;;;;5092764;28;20023;-74
2022/09/30 02:50:53;;;;;;;10.98;6.22;;;;;;;;;;5092562;28;20027;-74
2022/09/30 02:53:40;;;;;;;10.10;6.88;;;;;;;;;;5092602;28;20108;-75
2022/09/30 02:56:16;;;;;;;13.77;6.97;;;;;;;;;;5092765;28;20029;-74
2022/09/30 02:58:42;;;;;;;11.35;6.80;;;;;;;;;;5091039;28;20378;-75
2022/09/30 03:01:11;;;;;;;10.38;6.43;;;;;;;;;;5092176;28;20115;-75
2022/09/30 03:03:50;;;;;;;11.75;6.82;;;;;;;;;;5095612;28;20115;-75
2022/09/30 03:06:16;;;;;;;11.45;6.80;;;;;;;;;;5096015;28;20431;-75
2022/09/30 03:08:42;;;;;;;10.20;7.03;;;;;;;;;;5096050;28;20476;-74
2022/09/30 03:11:13;;;;;;;10.68;6.72;;;;;;;;;;5095909;28;20453;-74
2022/09/30 03:14:09;;;;;;;11.48;6.93;;;;;;;;;;5096226;28;20107;-73
2022/09/30 03:17:08;;;;;;;15.30;7.28;;;;;;;;;;5096005;28;20032;-74
2022/09/30 03:19:43;;;;;;;12.80;7.55;;;;;;;;;;5094387;28;20016;-75
2022/09/30 03:22:36;;;;;;;13.15;8.25;;;;;;;;;;5095731;28;20032;-75
2022/09/30 03:25:24;;;;;;;10.77;7.68;;;;;;;;;;5094348;28;20028;-74
2022/09/30 03:28:16;;;;;;;11.18;7.18;;;;;;;;;;5095644;28;20134;-74
2022/09/30 03:30:53;;;;;;;12.70;7.63;;;;;;;;;;5095471;28;20024;-75
2022/09/30 03:33:26;;;;;;;11.38;6.95;;;;;;;;;;5095475;28;20020;-76
2022/09/30 03:36:01;;;;;;;10.70;7.07;;;;;;;;;;5095373;28;20080;-76
2022/09/30 03:38:49;;;;;;;12.38;6.80;;;;;;;;;;5095663;28;20385;-74
2022/09/30 03:41:34;;;;;;;11.65;7.32;;;;;;;;;;5095735;28;20458;-76
2022/09/30 03:44:10;;;;;;;10.50;6.88;;;;;;;;;;5095674;28;20036;-76
2022/09/30 03:46:41;;;;;;;13.48;7.60;;;;;;;;;;5095463;28;20012;-76
2022/09/30 03:49:14;;;;;;;12.18;7.50;;;;;;;;;;5093907;28;20051;-74
2022/09/30 03:51:40;;;;;;;12.07;7.82;;;;;;;;;;5094075;28;20378;-75
2022/09/30 03:54:09;;;;;;;16.63;8.73;;;;;;;;;;5095342;28;20031;-74
2022/09/30 03:56:34;;;;;;;11.63;8.10;;;;;;;;;;5093612;28;20032;-74
2022/09/30 03:59:00;;;;;;;17.52;8.32;;;;;;;;;;5094960;28;20488;-76
2022/09/30 04:01:25;;;;;;;13.70;7.55;;;;;;;;;;5095300;28;20093;-76
2022/09/30 04:03:52;;;;;;;11.75;7.50;;;;;;;;;;5094859;28;20016;-76
2022/09/30 04:06:20;;;;;;;12.70;6.97;;;;;;;;;;5095050;28;20016;-76
2022/09/30 04:08:45;;;;;;;12.55;6.88;;;;;;;;;;5094843;28;20485;-75
2022/09/30 04:11:11;;;;;;;9.43;6.80;;;;;;;;;;5093468;28;20023;-76
2022/09/30 04:13:37;;;;;;;10.23;6.85;;;;;;;;;;5094472;28;20031;-75
2022/09/30 04:16:04;;;;;;;12.15;6.95;;;;;;;;;;5094616;28;20032;-75
2022/09/30 04:18:31;;;;;;;9.73;7.20;;;;;;;;;;5094986;28;20024;-75
2022/09/30 04:20:57;;;;;;;10.65;6.80;;;;;;;;;;5093238;28;20023;-76
2022/09/30 04:23:23;;;;;;;10.75;6.78;;;;;;;;;;5094834;28;20032;-76
2022/09/30 04:25:55;;;;;;;14.45;7.03;;;;;;;;;;5094834;28;20020;-76
2022/09/30 04:28:22;;;;;;;9.82;6.75;;;;;;;;;;5094439;28;20035;-75
2022/09/30 04:30:47;;;;;;;12.05;6.78;;;;;;;;;;5092951;28;20020;-74
2022/09/30 04:33:12;;;;;;;11.75;7.00;;;;;;;;;;5094312;28;20024;-75
2022/09/30 04:35:38;;;;;;;12.18;7.07;;;;;;;;;;5092986;28;20034;-76
2022/09/30 04:38:06;;;;;;;11.48;7.65;;;;;;;;;;5094412;28;20480;-76
2022/09/30 04:40:34;;;;;;;13.13;8.20;;;;;;;;;;5094481;28;20103;-76
2022/09/30 04:42:59;;;;;;;14.70;7.72;;;;;;;;;;5094241;28;20139;-76
2022/09/30 04:45:25;;;;;;;11.38;7.40;;;;;;;;;;5094097;28;20070;-75
2022/09/30 04:47:50;;;;;;;12.40;7.30;;;;;;;;;;5092884;28;20024;-76
2022/09/30 04:50:15;;;;;;;12.07;7.18;;;;;;;;;;5092685;28;20032;-76
2022/09/30 04:52:42;;;;;;;11.88;7.63;;;;;;;;;;5094040;28;20078;-76
2022/09/30 04:55:08;;;;;;;14.52;8.30;;;;;;;;;;5092580;28;20103;-78
2022/09/30 04:57:34;;;;;;;12.63;7.93;;;;;;;;;;5092552;28;20493;-75
2022/09/30 04:59:59;;;;;;;12.80;7.57;;;;;;;;;;5093708;28;20024;-75
2022/09/30 05:02:24;;;;;;;11.48;7.72;;;;;;;;;;5094040;28;20389;-76
2022/09/30 05:04:50;;;;;;;12.63;8.20;;;;;;;;;;5093776;28;20085;-76
2022/09/30 05:07:15;;;;;;;14.15;8.23;;;;;;;;;;5093718;28;20031;-76
2022/09/30 05:09:40;;;;;;;15.18;8.07;;;;;;;;;;5092291;28;20105;-76
2022/09/30 05:12:06;;;;;;;13.10;7.00;;;;;;;;;;5092356;28;20035;-76
2022/09/30 05:14:32;;;;;;;15.30;7.68;;;;;;;;;;5093587;28;20023;-75
2022/09/30 05:16:57;;;;;;;11.60;7.65;;;;;;;;;;5093504;28;20024;-75
2022/09/30 05:19:22;;;;;;;11.02;7.68;;;;;;;;;;5092110;28;20030;-75
2022/09/30 05:21:48;;;;;;;13.13;7.13;;;;;;;;;;5093567;28;20077;-75
2022/09/30 05:24:13;;;;;;;13.18;8.05;;;;;;;;;;5093394;28;20100;-75
2022/09/30 05:26:41;;;;;;;12.23;7.78;;;;;;;;;;5092374;28;20370;-74
2022/09/30 05:29:08;;;;;;;11.27;7.43;;;;;;;;;;5091798;28;20105;-75
2022/09/30 05:31:33;;;;;;;14.70;7.63;;;;;;;;;;5093347;28;20035;-76
2022/09/30 05:33:59;;;;;;;11.25;7.10;;;;;;;;;;5093265;28;20035;-76
2022/09/30 05:36:24;;;;;;;14.27;7.50;;;;;;;;;;5093172;28;20024;-75
2022/09/30 05:38:51;;;;;;;11.68;7.55;;;;;;;;;;5093333;28;20078;-76
2022/09/30 05:41:19;;;;;;;14.95;8.35;;;;;;;;;;5092939;28;20469;-76
2022/09/30 05:43:45;;;;;;;12.55;7.45;;;;;;;;;;5093115;28;20078;-75
2022/09/30 05:46:11;;;;;;;11.85;7.72;;;;;;;;;;5092920;28;20106;-75
2022/09/30 05:48:36;;;;;;;14.73;8.93;;;;;;;;;;5091696;28;20112;-75
2022/09/30 05:51:02;;;;;;;19.00;10.00;;;;;;;;;;5092926;28;20059;-75
2022/09/30 05:53:30;;;;;;;20.83;11.70;;;;;;;;;;5092998;28;20020;-73
2022/09/30 05:55:56;;;;;;;24.95;14.23;;;;;;;;;;5092910;28;20020;-75
2022/09/30 05:58:21;;;;;;;31.30;15.95;;;;;;;;;;5092936;28;20031;-75
2022/09/30 06:00:48;;;;;;;20.83;12.10;;;;;;;;;;5091502;28;20020;-75
2022/09/30 06:03:14;;;;;;;21.08;9.65;;;;;;;;;;5091648;28;20028;-76
2022/09/30 06:05:39;;;;;;;17.10;8.90;;;;;;;;;;5092773;28;20035;-75
2022/09/30 06:08:06;;;;;;;15.05;8.23;;;;;;;;;;5091405;28;20031;-75
2022/09/30 06:10:32;;;;;;;13.98;9.18;;;;;;;;;;5091381;28;20069;-75
2022/09/30 06:12:58;;;;;;;12.90;8.35;;;;;;;;;;5092970;28;20138;-75
2022/09/30 06:15:24;;;;;;;14.27;8.25;;;;;;;;;;5092775;28;20081;-75
2022/09/30 06:17:53;;;;;;;11.32;7.50;;;;;;;;;;5092885;28;20024;-75
2022/09/30 06:20:18;;;;;;;12.30;7.78;;;;;;;;;;5092516;28;20024;-75
2022/09/30 06:22:43;;;;;;;14.23;7.75;;;;;;;;;;5091257;28;20542;-74
2022/09/30 06:25:09;;;;;;;13.52;7.90;;;;;;;;;;5092780;28;20052;-75
2022/09/30 06:27:37;;;;;;;12.68;7.43;;;;;;;;;;5092436;28;20016;-75
2022/09/30 06:30:03;;;;;;;11.32;7.57;;;;;;;;;;5092491;28;20042;-75
2022/09/30 06:32:29;;;;;;;11.48;7.18;;;;;;;;;;5093156;28;20123;-77
2022/09/30 06:34:54;;;;;;;9.82;6.55;;;;;;;;;;5092615;28;20508;-74
2022/09/30 06:37:21;;;;;;;9.48;6.60;;;;;;;;;;5094514;28;20396;-74
2022/09/30 06:39:46;;;;;;;13.48;7.00;;;;;;;;;;5096796;28;20389;-73
2022/09/30 06:42:12;;;;;;;13.07;6.88;;;;;;;;;;5095496;28;20039;-73
2022/09/30 06:44:37;;;;;;;11.60;6.53;;;;;;;;;;5096428;28;20032;-74
2022/09/30 06:47:02;;;;;;;14.95;6.53;;;;;;;;;;5096578;28;20024;-74
2022/09/30 06:49:27;;;;;;;13.82;6.35;;;;;;;;;;5094913;28;20028;-74
2022/09/30 06:51:53;;;;;;;10.43;6.85;;;;;;;;;;5097331;28;20024;-78
2022/09/30 06:54:19;;;;;;;11.55;7.05;;;;;;;;;;5099482;28;20028;-77
2022/09/30 06:56:46;;;;;;;9.77;6.32;;;;;;;;;;5097494;28;20028;-76
2022/09/30 06:59:13;;;;;;;9.63;6.25;;;;;;;;;;5096066;28;20051;-73
2022/09/30 07:01:38;;;;;;;8.90;6.72;;;;;;;;;;5096462;28;20107;-76
2022/09/30 07:04:08;;;;;;;10.93;6.60;;;;;;;;;;5095098;28;20077;-75
2022/09/30 07:06:33;;;;;;;10.45;6.45;;;;;;;;;;5096739;28;20019;-77
2022/09/30 07:08:58;;;;;;;11.35;6.53;;;;;;;;;;5098679;28;20077;-78
2022/09/30 07:11:24;;;;;;;8.90;6.03;;;;;;;;;;5099294;28;20031;-78
2022/09/30 07:13:49;;;;;;;8.77;5.82;;;;;;;;;;5098080;28;20072;-77
2022/09/30 07:16:16;;;;;;;9.00;6.15;;;;;;;;;;5099711;28;20032;-77
2022/09/30 07:18:43;;;;;;;10.77;6.13;;;;;;;;;;5099768;28;20024;-77
2022/09/30 07:21:09;;;;;;;8.82;5.93;;;;;;;;;;5099395;28;20023;-76
2022/09/30 07:23:35;;;;;;;10.52;5.80;;;;;;;;;;5098573;28;20020;-77
2022/09/30 07:26:03;;;;;;;8.32;5.72;;;;;;;;;;5098746;28;20028;-77
2022/09/30 07:28:32;;;;;;;9.23;5.93;;;;;;;;;;5097322;28;20020;-77
2022/09/30 07:31:00;;;;;;;13.18;6.18;;;;;;;;;;5097044;28;20062;-77
2022/09/30 07:33:29;;;;;;;10.07;6.13;;;;;;;;;;5098308;28;20103;-77
2022/09/30 07:35:56;;;;;;;11.82;6.40;;;;;;;;;;5097203;28;20430;-77
2022/09/30 07:38:24;;;;;;;9.50;6.20;;;;;;;;;;5098836;28;20024;-77
2022/09/30 07:41:01;;;;;;;10.15;6.00;;;;;;;;;;5098799;28;20024;-77
2022/09/30 07:43:37;;;;;;;11.63;6.07;;;;;;;;;;5099078;28;20024;-78
2022/09/30 07:46:28;;;;;;;9.98;5.88;;;;;;;;;;5098906;28;20101;-78
2022/09/30 07:48:56;;;;;;;8.35;5.97;;;;;;;;;;5081738;28;20043;-78
2022/09/30 07:51:26;;;;;;;9.57;6.43;;;;;;;;;;5097803;28;20052;-78
2022/09/30 07:53:54;;;;;;;9.98;6.40;;;;;;;;;;5099359;28;20077;-77
2022/09/30 07:56:20;;;;;;;10.77;6.32;;;;;;;;;;5102438;28;20016;-78
2022/09/30 07:58:46;;;;;;;9.15;6.03;;;;;;;;;;5099330;28;20020;-78
2022/09/30 08:01:11;;;;;;;15.82;6.10;;;;;;;;;;5099589;28;20019;-77
2022/09/30 08:03:40;;;;;;;10.63;6.65;;;;;;;;;;5097191;28;20020;-77
2022/09/30 08:06:15;;;;;;;8.65;5.63;;;;;;;;;;5096913;28;20020;-77
2022/09/30 08:08:42;;;;;;;7.70;5.63;;;;;;;;;;5099054;28;20024;-77
2022/09/30 08:11:08;;;;;;;12.70;5.60;;;;;;;;;;5098622;28;20020;-77
2022/09/30 08:13:33;;;;;;;9.38;4.97;;;;;;;;;;5097649;28;20070;-77
2022/09/30 08:15:59;;;;;;;8.98;5.60;;;;;;;;;;5098635;28;20046;-77
2022/09/30 08:18:24;;;;;;;12.13;5.45;;;;;;;;;;5099068;28;20081;-77
2022/09/30 08:20:50;;;;;;;10.85;5.47;;;;;;;;;;5097995;28;20034;-77
2022/09/30 08:23:16;;;;;;;8.70;5.57;;;;;;;;;;5098661;28;20036;-77
2022/09/30 08:25:41;;;;;;;7.25;5.05;;;;;;;;;;5096608;28;20020;-78
2022/09/30 08:28:07;;;;;;;8.27;5.63;;;;;;;;;;5098894;28;20028;-77
2022/09/30 08:30:35;;;;;;;11.25;5.32;;;;;;;;;;5101748;28;20031;-77
2022/09/30 08:33:01;;;;;;;9.75;4.88;;;;;;;;;;5101907;28;20114;-77
2022/09/30 08:35:26;;;;;;;11.15;5.80;;;;;;;;;;5104959;28;20032;-77
2022/09/30 08:37:51;;;;;;;8.88;5.65;;;;;;;;;;5107147;28;20491;-77
2022/09/30 08:40:26;;;;;;;7.47;4.90;;;;;;;;;;5104728;28;20050;-76
2022/09/30 08:43:09;;;;;;;8.35;4.72;;;;;;;;;;5105767;28;20055;-77
2022/09/30 08:46:04;;;;;;;6.72;4.95;;;;;;;;;;5103663;28;20480;-77
2022/09/30 08:48:44;;;;;;;8.40;5.47;;;;;;;;;;5100608;28;20480;-77
2022/09/30 08:51:31;;;;;;;7.80;5.28;;;;;;;;;;5104087;28;20046;-77
2022/09/30 08:53:59;;;;;;;7.55;4.40;;;;;;;;;;5104457;28;20036;-77
2022/09/30 08:56:32;;;;;;;6.63;4.68;;;;;;;;;;5105466;28;20069;-77
2022/09/30 08:59:43;;;;;;;8.77;4.15;;;;;;;;;;5107175;28;20020;-76
2022/09/30 09:02:21;;;;;;;7.10;4.28;;;;;;;;;;5082764;28;20032;-77
2022/09/30 09:04:49;;;;;;;7.00;3.92;;;;;;;;;;5107650;28;20084;-77
2022/09/30 09:08:01;;;;;;;8.50;4.40;;;;;;;;;;5105607;28;20016;-77
2022/09/30 09:10:42;;;;;;;6.88;4.45;;;;;;;;;;5104102;28;20052;-77
2022/09/30 09:13:33;;;;;;;6.55;3.92;;;;;;;;;;5109279;28;20016;-77
2022/09/30 09:16:09;;;;;;;5.38;3.88;;;;;;;;;;5108593;28;20024;-77
2022/09/30 09:18:44;;;;;;;9.20;4.10;;;;;;;;;;5109653;28;20081;-77
2022/09/30 09:21:22;;;;;;;7.88;4.00;;;;;;;;;;5106612;28;20020;-77
2022/09/30 09:23:52;;;;;;;7.65;3.85;;;;;;;;;;5101544;28;20040;-76
2022/09/30 09:26:18;;;;;;;6.70;3.97;;;;;;;;;;5104470;28;20031;-77
2022/09/30 09:29:20;;;;;;;6.03;3.90;;;;;;;;;;5096603;28;20028;-77
2022/09/30 09:31:47;;;;;;;4.75;3.22;;;;;;;;;;5094493;28;20031;-77
2022/09/30 09:34:12;;;;;;;4.18;3.33;;;;;;;;;;5096567;28;20020;-79
2022/09/30 09:37:06;;;;;;;6.93;3.50;;;;;;;;;;5096007;28;20488;-76
2022/09/30 09:39:49;;;;;;;4.30;3.27;;;;;;;;;;5095812;28;20085;-77
2022/09/30 09:42:44;;;;;;;6.38;3.30;;;;;;;;;;5095770;28;20252;-76
2022/09/30 09:45:26;;;;;;;9.13;3.30;;;;;;;;;;5093958;28;20036;-77
2022/09/30 09:47:52;;;;;;;5.78;3.22;;;;;;;;;;5096082;28;20020;-77
2022/09/30 09:50:38;;;;;;;9.98;3.40;;;;;;;;;;5095163;28;20057;-77
2022/09/30 09:53:30;;;;;;;5.90;3.35;;;;;;;;;;5096749;28;20354;-77
2022/09/30 09:55:58;;;;;;;8.38;3.58;;;;;;;;;;5096350;28;20035;-77
2022/09/30 09:58:24;;;;;;;7.32;4.53;;;;;;;;;;5095027;28;20019;-77
2022/09/30 10:03:25;;;;;;;6.55;3.05;;;;;;;;;;5096112;28;20054;-77
2022/09/30 10:06:03;;;;;;;5.05;3.15;;;;;;;;;;5093588;28;20016;-77
2022/09/30 10:08:30;;;;;;;4.40;2.78;;;;;;;;;;5095336;28;20039;-77
2022/09/30 10:10:59;;;;;;;4.30;2.95;;;;;;;;;;5095827;28;20027;-77
2022/09/30 10:13:43;;;;;;;4.63;2.88;;;;;;;;;;5094826;28;20028;-77
2022/09/30 10:16:24;;;;;;;;;;;;;;;;;;5094551;28;20078;-77
2022/09/30 10:18:49;;;;;;;5.03;2.60;;;;;;;;;;5096303;28;19908;-77
2022/09/30 10:21:26;;;;;;;6.47;2.53;;;;;;;;;;5095194;28;20023;-77
2022/09/30 10:23:52;;;;;;;5.93;2.72;;;;;;;;;;5095564;28;20044;-77
2022/09/30 10:26:20;;;;;;;6.47;2.40;;;;;;;;;;5093709;28;20020;-77
2022/09/30 10:28:53;;;;;;;4.88;2.85;;;;;;;;;;5095879;28;20059;-78
2022/09/30 10:31:28;;;;;;;3.55;2.67;;;;;;;;;;5095201;28;20027;-77
2022/09/30 10:34:29;;;;;;;4.30;2.80;;;;;;;;;;5095513;28;20032;-77
2022/09/30 10:36:56;;;;;;;4.53;2.80;;;;;;;;;;5095420;28;20024;-77
2022/09/30 10:39:24;;;;;;;7.00;2.42;;;;;;;;;;5095259;28;20103;-77
2022/09/30 10:42:15;;;;;;;3.58;2.35;;;;;;;;;;5095470;28;20028;-77
2022/09/30 10:44:50;;;;;;;3.47;2.30;;;;;;;;;;5094542;28;20024;-77
2022/09/30 10:47:20;;;;;;;3.40;2.00;;;;;;;;;;5092835;28;20106;-77
2022/09/30 10:49:48;;;;;;;3.10;1.90;;;;;;;;;;5093508;28;20099;-77
2022/09/30 10:52:22;;;;;;;2.72;1.73;;;;;;;;;;5094318;28;20481;-76
2022/09/30 10:54:50;;;;;;;3.65;2.13;;;;;;;;;;5095095;28;20028;-77
2022/09/30 10:57:26;;;;;;;2.97;2.00;;;;;;;;;;5093196;28;20119;-76
2022/09/30 10:59:57;;;;;;;2.03;1.55;;;;;;;;;;5092850;28;20028;-76
2022/09/30 11:03:01;;;;;;;5.97;1.90;;;;;;;;;;5093223;28;20035;-77
2022/09/30 11:05:30;;;;;;;2.78;1.92;;;;;;;;;;5090859;28;20062;-77
2022/09/30 11:08:05;;;;;;;2.67;1.83;;;;;;;;;;5094408;28;20081;-77
2022/09/30 11:10:55;;;;;;;3.50;2.35;;;;;;;;;;5094380;28;20031;-77
2022/09/30 11:13:46;;;;;;;6.00;2.30;;;;;;;;;;5096584;28;20032;-77
2022/09/30 11:16:23;;;;;;;8.43;2.45;;;;;;;;;;5096586;28;20435;-76
2022/09/30 11:18:55;;;;;;;6.00;2.50;;;;;;;;;;5094912;28;20020;-77
2022/09/30 11:21:28;;;;;;;3.47;2.35;;;;;;;;;;5096781;28;20024;-76
2022/09/30 11:24:04;;;;;;;5.85;2.42;;;;;;;;;;5097352;28;20116;-77
2022/09/30 11:27:00;;;;;;;4.07;2.55;;;;;;;;;;5100125;28;20438;-77
2022/09/30 11:29:34;;;;;;;5.15;2.15;;;;;;;;;;5098946;28;20024;-77
2022/09/30 11:32:08;;;;;;;3.45;2.00;;;;;;;;;;5099131;28;20103;-77
2022/09/30 11:34:34;;;;;;;5.07;2.15;;;;;;;;;;5098170;28;20020;-77
2022/09/30 11:37:19;;;;;;;2.75;2.10;;;;;;;;;;5097192;28;20074;-77
2022/09/30 11:40:18;;;;;;;3.13;1.60;;;;;;;;;;5096416;28;20028;-76
2022/09/30 11:42:56;;;;;;;4.43;2.83;;;;;;;;;;5096794;28;20031;-77
2022/09/30 11:45:33;;;;;;;3.47;1.77;;;;;;;;;;5098608;28;20060;-76
2022/09/30 11:48:16;;;;;;;2.20;1.60;;;;;;;;;;5097518;28;20024;-76
2022/09/30 11:51:07;;;;;;;2.03;1.30;;;;;;;;;;5097832;28;20024;-75
2022/09/30 11:54:14;;;;;;;2.00;1.50;;;;;;;;;;5098860;28;20518;-77
2022/09/30 11:56:49;;;;;;;2.38;1.55;;;;;;;;;;5097343;28;20040;-77
2022/09/30 11:59:24;;;;;;;3.70;1.77;;;;;;;;;;5097165;28;20032;-77
2022/09/30 12:01:53;;;;;;;2.63;1.50;;;;;;;;;;5098633;28;20487;-77
2022/09/30 12:04:24;;;;;;;1.70;1.25;;;;;;;;;;5097797;28;20062;-77
2022/09/30 12:06:55;;;;;;;2.70;1.30;;;;;;;;;;5098699;28;20020;-78
2022/09/30 12:09:36;;;;;;;3.70;1.33;;;;;;;;;;5097776;28;20030;-77
2022/09/30 12:12:08;;;;;;;2.70;1.42;;;;;;;;;;5095899;28;20028;-76
2022/09/30 12:14:40;;;;;;;5.93;1.30;;;;;;;;;;5097990;28;20027;-76
2022/09/30 12:17:18;;;;;;;2.60;1.45;;;;;;;;;;5096193;28;20028;-77
2022/09/30 12:19:48;;;;;;;2.20;1.60;;;;;;;;;;5098348;28;20485;-77
2022/09/30 12:22:19;;;;;;;3.95;1.60;;;;;;;;;;5097678;28;20027;-77
2022/09/30 12:24:44;;;;;;;1.83;1.45;;;;;;;;;;5097493;28;20475;-77
2022/09/30 12:27:37;;;;;;;2.70;1.45;;;;;;;;;;5096565;28;20065;-77
2022/09/30 12:30:29;;;;;;;2.03;1.38;;;;;;;;;;5097470;28;20052;-77
2022/09/30 12:33:13;;;;;;;4.85;1.70;;;;;;;;;;5093399;28;20120;-77
2022/09/30 12:36:16;;;;;;;2.55;1.30;;;;;;;;;;5096476;28;20024;-76
2022/09/30 12:39:19;;;;;;;1.83;1.20;;;;;;;;;;5097493;28;20032;-76
2022/09/30 12:41:52;;;;;;;1.90;1.08;;;;;;;;;;5097395;28;20016;-78
2022/09/30 12:44:59;;;;;;;4.55;1.40;;;;;;;;;;5098170;28;20064;-77
2022/09/30 12:47:37;;;;;;;1.80;1.13;;;;;;;;;;5096453;28;20035;-77
2022/09/30 12:50:07;;;;;;;1.98;1.20;;;;;;;;;;5097371;28;20225;-76
2022/09/30 12:52:34;;;;;;;5.78;1.40;;;;;;;;;;5095961;28;20028;-77
2022/09/30 12:55:24;;;;;;;1.77;1.20;;;;;;;;;;5097283;28;20028;-77
2022/09/30 12:57:51;;;;;;;1.88;1.20;;;;;;;;;;5083566;28;20040;-77
2022/09/30 13:00:20;;;;;;;5.60;1.70;;;;;;;;;;5097310;28;20474;-77
2022/09/30 13:02:53;;;;;;;3.15;1.70;;;;;;;;;;5096878;28;20081;-77
2022/09/30 13:05:30;;;;;;;1.63;1.23;;;;;;;;;;5095566;28;20173;-77
2022/09/30 13:08:05;;;;;;;3.80;1.55;;;;;;;;;;5097370;28;20020;-77
2022/09/30 13:10:31;;;;;;;2.15;1.50;;;;;;;;;;5096903;28;20020;-77
2022/09/30 13:13:11;;;;;;;2.67;1.42;;;;;;;;;;5097076;28;20028;-77
2022/09/30 13:15:41;;;;;;;3.25;1.60;;;;;;;;;;5097069;28;20053;-77
2022/09/30 13:18:19;;;;;;;3.15;1.50;;;;;;;;;;5097597;28;20020;-77
2022/09/30 13:21:05;;;;;;;2.30;1.58;;;;;;;;;;5097537;28;20024;-78
2022/09/30 13:23:43;;;;;;;3.50;1.50;;;;;;;;;;5082399;28;20036;-76
2022/09/30 13:26:21;;;;;;;2.67;1.55;;;;;;;;;;5096679;28;20477;-77
2022/09/30 13:28:46;;;;;;;3.55;1.65;;;;;;;;;;5096314;28;20415;-77
2022/09/30 13:31:20;;;;;;;3.05;1.75;;;;;;;;;;5097140;28;20024;-77
2022/09/30 13:34:00;;;;;;;2.65;1.60;;;;;;;;;;5096780;28;20400;-76
2022/09/30 13:36:30;;;;;;;4.25;1.67;;;;;;;;;;5097085;28;20024;-76
2022/09/30 13:39:15;;;;;;;4.20;1.80;;;;;;;;;;5096963;28;20103;-76
2022/09/30 13:41:43;;;;;;;2.42;1.40;;;;;;;;;;5096712;28;20028;-76
2022/09/30 13:44:15;;;;;;;2.10;1.50;;;;;;;;;;5094566;28;20032;-77
2022/09/30 13:47:26;;;;;;;5.65;1.50;;;;;;;;;;5093782;28;20358;-77
2022/09/30 13:49:59;;;;;;;3.15;1.60;;;;;;;;;;5094674;28;20032;-77
2022/09/30 13:52:29;;;;;;;5.75;1.50;;;;;;;;;;5096381;28;20543;-77
2022/09/30 13:55:02;;;;;;;8.05;1.58;;;;;;;;;;5096539;28;20034;-77
2022/09/30 13:57:42;;;;;;;2.35;1.40;;;;;;;;;;5096475;28;20118;-77
2022/09/30 14:00:40;;;;;;;3.35;1.42;;;;;;;;;;5095879;28;20024;-77
2022/09/30 14:03:22;;;;;;;2.33;1.45;;;;;;;;;;5095320;28;20026;-77
2022/09/30 14:06:02;;;;;;;2.55;1.67;;;;;;;;;;5095530;28;20019;-77
2022/09/30 14:08:37;;;;;;;3.13;1.40;;;;;;;;;;5096183;28;20493;-77
2022/09/30 14:11:30;;;;;;;3.17;1.63;;;;;;;;;;5096006;28;20032;-77
2022/09/30 14:14:14;;;;;;;3.67;1.40;;;;;;;;;;5094099;28;20043;-77
2022/09/30 14:17:21;;;;;;;2.30;1.52;;;;;;;;;;5093938;28;20031;-77
2022/09/30 14:20:11;;;;;;;5.32;1.67;;;;;;;;;;5094350;28;20073;-77
2022/09/30 14:22:37;;;;;;;2.63;1.60;;;;;;;;;;5095852;28;20012;-76
2022/09/30 14:25:03;;;;;;;2.47;1.55;;;;;;;;;;5094446;28;20035;-77
2022/09/30 14:27:52;;;;;;;1.95;1.40;;;;;;;;;;5095965;28;20473;-77
2022/09/30 14:30:22;;;;;;;3.63;1.73;;;;;;;;;;5095410;28;20157;-77
2022/09/30 14:32:51;;;;;;;3.50;1.70;;;;;;;;;;5094476;28;20376;-76
2022/09/30 14:35:23;;;;;;;1.83;1.40;;;;;;;;;;5094260;28;20024;-77
2022/09/30 14:37:53;;;;;;;2.55;1.40;;;;;;;;;;5094188;28;20477;-77
2022/09/30 14:40:25;;;;;;;3.95;1.70;;;;;;;;;;5094499;28;20024;-77
2022/09/30 14:42:51;;;;;;;3.67;1.80;;;;;;;;;;5093026;28;20031;-77
2022/09/30 14:45:25;;;;;;;2.63;1.40;;;;;;;;;;5094671;28;20028;-76
2022/09/30 14:47:54;;;;;;;4.40;1.63;;;;;;;;;;5094855;28;20017;-77
2022/09/30 14:50:24;;;;;;;1.98;1.30;;;;;;;;;;5094036;28;20020;-77
2022/09/30 14:52:58;;;;;;;6.70;1.58;;;;;;;;;;5094399;28;20050;-76
2022/09/30 14:55:29;;;;;;;1.95;1.30;;;;;;;;;;5094189;28;20027;-77
2022/09/30 14:58:17;;;;;;;1.85;1.40;;;;;;;;;;5095278;28;20362;-77
2022/09/30 15:00:44;;;;;;;3.08;1.73;;;;;;;;;;5098524;28;20016;-78
2022/09/30 15:03:11;;;;;;;2.70;1.50;;;;;;;;;;5098153;28;20108;-77
2022/09/30 15:05:37;;;;;;;2.13;1.35;;;;;;;;;;5096642;28;20027;-76
2022/09/30 15:08:08;;;;;;;2.03;1.35;;;;;;;;;;5098042;28;20081;-76
2022/09/30 15:10:34;;;;;;;3.05;1.50;;;;;;;;;;5097929;28;20036;-78
2022/09/30 15:13:00;;;;;;;3.08;1.58;;;;;;;;;;5096538;28;20031;-77
2022/09/30 15:15:33;;;;;;;7.05;1.60;;;;;;;;;;5097715;28;20481;-77
2022/09/30 15:18:01;;;;;;;2.30;1.50;;;;;;;;;;5098223;28;20084;-77